sensor_id;sensor_type;location;lat;lon;timestamp;temperature;humidity
1075;DHT22;526;51.392;12.448;2023-06-19T00:01:43;20.80;91.00
1075;DHT22;526;51.392;12.448;2023-06-19T00:04:14;20.80;91.50
1075;DHT22;526;51.392;12.448;2023-06-19T00:06:47;20.70;91.60
1075;DHT22;526;51.392;12.448;2023-06-19T00:09:14;20.70;91.50
1075;DHT22;526;51.392;12.448;2023-06-19T00:11:39;20.60;91.60
1075;DHT22;526;51.392;12.448;2023-06-19T00:14:05;20.60;91.90
1075;DHT22;526;51.392;12.448;2023-06-19T00:16:31;20.60;91.70
1075;DHT22;526;51.392;12.448;2023-06-19T00:18:59;20.50;91.80
1075;DHT22;526;51.392;12.448;2023-06-19T00:21:27;20.50;92.00
1075;DHT22;526;51.392;12.448;2023-06-19T00:23:53;20.40;92.00
1075;DHT22;526;51.392;12.448;2023-06-19T00:26:24;20.40;92.00
1075;DHT22;526;51.392;12.448;2023-06-19T00:28:51;20.30;92.20
1075;DHT22;526;51.392;12.448;2023-06-19T00:31:27;20.30;92.30
1075;DHT22;526;51.392;12.448;2023-06-19T00:33:53;20.20;92.60
1075;DHT22;526;51.392;12.448;2023-06-19T00:36:18;20.20;92.60
1075;DHT22;526;51.392;12.448;2023-06-19T00:38:50;20.10;92.80
1075;DHT22;526;51.392;12.448;2023-06-19T00:41:24;20.10;93.10
1075;DHT22;526;51.392;12.448;2023-06-19T00:43:50;20.00;93.20
1075;DHT22;526;51.392;12.448;2023-06-19T00:46:18;20.00;93.30
1075;DHT22;526;51.392;12.448;2023-06-19T00:48:43;20.00;93.20
1075;DHT22;526;51.392;12.448;2023-06-19T00:51:09;20.00;93.40
1075;DHT22;526;51.392;12.448;2023-06-19T00:53:35;20.00;93.40
1075;DHT22;526;51.392;12.448;2023-06-19T00:56:03;19.90;93.50
1075;DHT22;526;51.392;12.448;2023-06-19T00:58:29;20.00;93.60
1075;DHT22;526;51.392;12.448;2023-06-19T01:00:54;20.00;93.60
1075;DHT22;526;51.392;12.448;2023-06-19T01:03:21;20.00;93.60
1075;DHT22;526;51.392;12.448;2023-06-19T01:05:48;20.00;93.60
1075;DHT22;526;51.392;12.448;2023-06-19T01:08:37;20.10;93.50
1075;DHT22;526;51.392;12.448;2023-06-19T01:11:09;20.10;93.40
1075;DHT22;526;51.392;12.448;2023-06-19T01:13:39;20.10;93.10
1075;DHT22;526;51.392;12.448;2023-06-19T01:16:09;20.20;93.10
1075;DHT22;526;51.392;12.448;2023-06-19T01:18:36;20.20;92.80
1075;DHT22;526;51.392;12.448;2023-06-19T01:21:16;20.20;93.30
1075;DHT22;526;51.392;12.448;2023-06-19T01:23:43;20.20;93.00
1075;DHT22;526;51.392;12.448;2023-06-19T01:26:09;20.30;92.80
1075;DHT22;526;51.392;12.448;2023-06-19T01:28:35;20.30;92.60
1075;DHT22;526;51.392;12.448;2023-06-19T01:31:11;20.30;92.60
1075;DHT22;526;51.392;12.448;2023-06-19T01:33:39;20.40;92.60
1075;DHT22;526;51.392;12.448;2023-06-19T01:36:07;20.40;92.50
1075;DHT22;526;51.392;12.448;2023-06-19T01:38:34;20.40;92.50
1075;DHT22;526;51.392;12.448;2023-06-19T01:41:01;20.50;92.40
1075;DHT22;526;51.392;12.448;2023-06-19T01:43:29;20.50;92.30
1075;DHT22;526;51.392;12.448;2023-06-19T01:45:55;20.50;92.30
1075;DHT22;526;51.392;12.448;2023-06-19T01:48:21;20.50;92.40
1075;DHT22;526;51.392;12.448;2023-06-19T01:50:50;20.50;92.50
1075;DHT22;526;51.392;12.448;2023-06-19T01:53:16;20.50;92.50
1075;DHT22;526;51.392;12.448;2023-06-19T01:55:42;20.50;92.60
1075;DHT22;526;51.392;12.448;2023-06-19T01:58:08;20.50;92.50
1075;DHT22;526;51.392;12.448;2023-06-19T02:00:36;20.50;92.60
1075;DHT22;526;51.392;12.448;2023-06-19T02:03:02;20.50;92.50
1075;DHT22;526;51.392;12.448;2023-06-19T02:05:28;20.50;92.60
1075;DHT22;526;51.392;12.448;2023-06-19T02:07:53;20.40;92.50
1075;DHT22;526;51.392;12.448;2023-06-19T02:10:24;20.40;92.60
1075;DHT22;526;51.392;12.448;2023-06-19T02:12:49;20.40;92.70
1075;DHT22;526;51.392;12.448;2023-06-19T02:15:17;20.40;92.80
1075;DHT22;526;51.392;12.448;2023-06-19T02:17:42;20.30;92.60
1075;DHT22;526;51.392;12.448;2023-06-19T02:20:13;20.30;92.70
1075;DHT22;526;51.392;12.448;2023-06-19T02:22:39;20.30;92.90
1075;DHT22;526;51.392;12.448;2023-06-19T02:25:05;20.30;93.00
1075;DHT22;526;51.392;12.448;2023-06-19T02:27:31;20.30;92.90
1075;DHT22;526;51.392;12.448;2023-06-19T02:29:57;20.30;93.20
1075;DHT22;526;51.392;12.448;2023-06-19T02:32:25;20.20;93.20
1075;DHT22;526;51.392;12.448;2023-06-19T02:34:50;20.20;93.40
1075;DHT22;526;51.392;12.448;2023-06-19T02:37:16;20.20;93.30
1075;DHT22;526;51.392;12.448;2023-06-19T02:39:41;20.20;93.30
1075;DHT22;526;51.392;12.448;2023-06-19T02:42:07;20.10;93.60
1075;DHT22;526;51.392;12.448;2023-06-19T02:44:33;20.10;93.80
1075;DHT22;526;51.392;12.448;2023-06-19T02:46:58;20.10;93.80
1075;DHT22;526;51.392;12.448;2023-06-19T02:49:33;20.00;93.80
1075;DHT22;526;51.392;12.448;2023-06-19T02:51:59;20.00;93.80
1075;DHT22;526;51.392;12.448;2023-06-19T02:54:34;19.90;94.00
1075;DHT22;526;51.392;12.448;2023-06-19T02:56:59;19.80;94.10
1075;DHT22;526;51.392;12.448;2023-06-19T02:59:25;19.80;94.50
1075;DHT22;526;51.392;12.448;2023-06-19T03:01:51;19.70;94.60
1075;DHT22;526;51.392;12.448;2023-06-19T03:04:17;19.60;94.70
1075;DHT22;526;51.392;12.448;2023-06-19T03:06:43;19.60;94.80
1075;DHT22;526;51.392;12.448;2023-06-19T03:09:08;19.60;94.90
1075;DHT22;526;51.392;12.448;2023-06-19T03:11:40;19.50;95.00
1075;DHT22;526;51.392;12.448;2023-06-19T03:14:07;19.50;95.10
1075;DHT22;526;51.392;12.448;2023-06-19T03:16:33;19.40;95.30
1075;DHT22;526;51.392;12.448;2023-06-19T03:18:59;19.40;95.30
1075;DHT22;526;51.392;12.448;2023-06-19T03:21:25;19.40;95.30
1075;DHT22;526;51.392;12.448;2023-06-19T03:23:51;19.40;95.40
1075;DHT22;526;51.392;12.448;2023-06-19T03:26:17;19.40;95.50
1075;DHT22;526;51.392;12.448;2023-06-19T03:28:43;19.40;95.60
1075;DHT22;526;51.392;12.448;2023-06-19T03:31:08;19.40;95.50
1075;DHT22;526;51.392;12.448;2023-06-19T03:33:34;19.40;95.50
1075;DHT22;526;51.392;12.448;2023-06-19T03:36:00;19.40;95.50
1075;DHT22;526;51.392;12.448;2023-06-19T03:38:25;19.30;95.90
1075;DHT22;526;51.392;12.448;2023-06-19T03:40:51;19.30;95.90
1075;DHT22;526;51.392;12.448;2023-06-19T03:43:16;19.20;95.70
1075;DHT22;526;51.392;12.448;2023-06-19T03:45:44;19.20;95.50
1075;DHT22;526;51.392;12.448;2023-06-19T03:48:14;19.10;95.70
1075;DHT22;526;51.392;12.448;2023-06-19T03:50:43;19.00;96.00
1075;DHT22;526;51.392;12.448;2023-06-19T03:53:11;19.00;96.20
1075;DHT22;526;51.392;12.448;2023-06-19T03:55:43;19.00;96.30
1075;DHT22;526;51.392;12.448;2023-06-19T03:58:09;19.10;96.60
1075;DHT22;526;51.392;12.448;2023-06-19T04:00:37;19.10;96.60
1075;DHT22;526;51.392;12.448;2023-06-19T04:03:05;19.20;96.40
1075;DHT22;526;51.392;12.448;2023-06-19T04:05:38;19.30;96.40
1075;DHT22;526;51.392;12.448;2023-06-19T04:08:05;19.30;96.30
1075;DHT22;526;51.392;12.448;2023-06-19T04:10:30;19.40;96.30
1075;DHT22;526;51.392;12.448;2023-06-19T04:12:56;19.40;96.20
1075;DHT22;526;51.392;12.448;2023-06-19T04:15:25;19.40;96.30
1075;DHT22;526;51.392;12.448;2023-06-19T04:17:55;19.40;96.30
1075;DHT22;526;51.392;12.448;2023-06-19T04:20:25;19.40;96.10
1075;DHT22;526;51.392;12.448;2023-06-19T04:22:53;19.40;96.30
1075;DHT22;526;51.392;12.448;2023-06-19T04:25:24;19.50;96.10
1075;DHT22;526;51.392;12.448;2023-06-19T04:27:50;19.50;96.10
1075;DHT22;526;51.392;12.448;2023-06-19T04:30:27;19.60;96.20
1075;DHT22;526;51.392;12.448;2023-06-19T04:32:52;19.60;96.10
1075;DHT22;526;51.392;12.448;2023-06-19T04:35:20;19.70;96.00
1075;DHT22;526;51.392;12.448;2023-06-19T04:37:46;19.70;96.10
1075;DHT22;526;51.392;12.448;2023-06-19T04:40:16;19.80;95.80
1075;DHT22;526;51.392;12.448;2023-06-19T04:42:44;19.80;95.80
1075;DHT22;526;51.392;12.448;2023-06-19T04:45:10;19.80;95.30
1075;DHT22;526;51.392;12.448;2023-06-19T04:47:35;19.90;95.30
1075;DHT22;526;51.392;12.448;2023-06-19T04:50:09;19.90;95.10
1075;DHT22;526;51.392;12.448;2023-06-19T04:52:44;20.00;95.00
1075;DHT22;526;51.392;12.448;2023-06-19T04:55:12;20.00;95.10
1075;DHT22;526;51.392;12.448;2023-06-19T04:57:37;20.00;95.10
1075;DHT22;526;51.392;12.448;2023-06-19T05:00:04;20.10;94.90
1075;DHT22;526;51.392;12.448;2023-06-19T05:02:33;20.10;94.90
1075;DHT22;526;51.392;12.448;2023-06-19T05:05:07;20.20;94.80
1075;DHT22;526;51.392;12.448;2023-06-19T05:07:36;20.30;94.80
1075;DHT22;526;51.392;12.448;2023-06-19T05:10:04;20.30;94.80
1075;DHT22;526;51.392;12.448;2023-06-19T05:12:37;20.40;94.60
1075;DHT22;526;51.392;12.448;2023-06-19T05:15:05;20.50;94.70
1075;DHT22;526;51.392;12.448;2023-06-19T05:17:33;20.60;94.70
1075;DHT22;526;51.392;12.448;2023-06-19T05:20:08;20.70;94.50
1075;DHT22;526;51.392;12.448;2023-06-19T05:22:34;20.70;94.40
1075;DHT22;526;51.392;12.448;2023-06-19T05:25:01;20.70;94.30
1075;DHT22;526;51.392;12.448;2023-06-19T05:27:28;20.80;94.20
1075;DHT22;526;51.392;12.448;2023-06-19T05:29:55;20.80;94.00
1075;DHT22;526;51.392;12.448;2023-06-19T05:32:28;20.90;94.00
1075;DHT22;526;51.392;12.448;2023-06-19T05:35:04;20.90;94.20
1075;DHT22;526;51.392;12.448;2023-06-19T05:37:37;20.90;94.00
1075;DHT22;526;51.392;12.448;2023-06-19T05:40:04;20.90;93.90
1075;DHT22;526;51.392;12.448;2023-06-19T05:42:31;20.90;93.90
1075;DHT22;526;51.392;12.448;2023-06-19T05:45:04;20.90;93.90
1075;DHT22;526;51.392;12.448;2023-06-19T05:47:30;20.90;93.80
1075;DHT22;526;51.392;12.448;2023-06-19T05:49:56;20.90;93.90
1075;DHT22;526;51.392;12.448;2023-06-19T05:52:22;20.90;94.00
1075;DHT22;526;51.392;12.448;2023-06-19T05:54:48;21.00;94.10
1075;DHT22;526;51.392;12.448;2023-06-19T05:57:13;21.00;94.00
1075;DHT22;526;51.392;12.448;2023-06-19T05:59:41;21.00;93.90
1075;DHT22;526;51.392;12.448;2023-06-19T06:02:07;21.00;93.90
1075;DHT22;526;51.392;12.448;2023-06-19T06:04:33;21.00;94.00
1075;DHT22;526;51.392;12.448;2023-06-19T06:07:00;21.00;94.00
1075;DHT22;526;51.392;12.448;2023-06-19T06:09:25;21.00;94.10
1075;DHT22;526;51.392;12.448;2023-06-19T06:11:52;21.00;94.10
1075;DHT22;526;51.392;12.448;2023-06-19T06:14:18;21.00;94.10
1075;DHT22;526;51.392;12.448;2023-06-19T06:16:43;21.00;94.40
1075;DHT22;526;51.392;12.448;2023-06-19T06:19:09;21.00;95.10
1075;DHT22;526;51.392;12.448;2023-06-19T06:21:34;21.00;95.00
1075;DHT22;526;51.392;12.448;2023-06-19T06:24:00;21.10;94.90
1075;DHT22;526;51.392;12.448;2023-06-19T06:26:25;21.10;95.10
1075;DHT22;526;51.392;12.448;2023-06-19T06:28:52;21.10;94.90
1075;DHT22;526;51.392;12.448;2023-06-19T06:31:17;21.10;95.10
1075;DHT22;526;51.392;12.448;2023-06-19T06:33:43;21.10;95.20
1075;DHT22;526;51.392;12.448;2023-06-19T06:36:08;21.10;95.20
1075;DHT22;526;51.392;12.448;2023-06-19T06:38:34;21.10;95.10
1075;DHT22;526;51.392;12.448;2023-06-19T06:41:00;21.10;95.30
1075;DHT22;526;51.392;12.448;2023-06-19T06:43:25;21.20;95.30
1075;DHT22;526;51.392;12.448;2023-06-19T06:45:51;21.10;95.70
1075;DHT22;526;51.392;12.448;2023-06-19T06:48:16;21.10;95.80
1075;DHT22;526;51.392;12.448;2023-06-19T06:50:42;21.10;95.80
1075;DHT22;526;51.392;12.448;2023-06-19T06:53:08;21.10;96.20
1075;DHT22;526;51.392;12.448;2023-06-19T06:55:34;21.10;96.20
1075;DHT22;526;51.392;12.448;2023-06-19T06:57:59;21.10;96.50
1075;DHT22;526;51.392;12.448;2023-06-19T07:00:25;21.00;96.30
1075;DHT22;526;51.392;12.448;2023-06-19T07:02:53;21.00;96.60
1075;DHT22;526;51.392;12.448;2023-06-19T07:05:19;20.90;96.60
1075;DHT22;526;51.392;12.448;2023-06-19T07:07:45;20.90;97.00
1075;DHT22;526;51.392;12.448;2023-06-19T07:10:10;20.80;97.00
1075;DHT22;526;51.392;12.448;2023-06-19T07:12:47;20.80;97.10
1075;DHT22;526;51.392;12.448;2023-06-19T07:15:13;20.80;97.30
1075;DHT22;526;51.392;12.448;2023-06-19T07:17:39;20.80;97.30
1075;DHT22;526;51.392;12.448;2023-06-19T07:20:05;20.70;97.30
1075;DHT22;526;51.392;12.448;2023-06-19T07:22:34;20.70;97.30
1075;DHT22;526;51.392;12.448;2023-06-19T07:25:01;20.80;97.30
1075;DHT22;526;51.392;12.448;2023-06-19T07:27:26;20.80;97.30
1075;DHT22;526;51.392;12.448;2023-06-19T07:29:53;20.80;97.30
1075;DHT22;526;51.392;12.448;2023-06-19T07:32:18;20.80;97.30
1075;DHT22;526;51.392;12.448;2023-06-19T07:34:45;20.80;97.30
1075;DHT22;526;51.392;12.448;2023-06-19T07:37:11;20.70;97.30
1075;DHT22;526;51.392;12.448;2023-06-19T07:39:43;20.70;97.30
1075;DHT22;526;51.392;12.448;2023-06-19T07:42:09;20.70;97.30
1075;DHT22;526;51.392;12.448;2023-06-19T07:44:36;20.70;97.30
1075;DHT22;526;51.392;12.448;2023-06-19T07:47:01;20.70;97.30
1075;DHT22;526;51.392;12.448;2023-06-19T07:49:27;20.70;97.30
1075;DHT22;526;51.392;12.448;2023-06-19T07:51:53;20.70;97.30
1075;DHT22;526;51.392;12.448;2023-06-19T07:54:18;20.80;97.30
1075;DHT22;526;51.392;12.448;2023-06-19T07:56:44;20.80;97.30
1075;DHT22;526;51.392;12.448;2023-06-19T07:59:09;20.80;97.30
1075;DHT22;526;51.392;12.448;2023-06-19T08:01:35;20.80;97.30
1075;DHT22;526;51.392;12.448;2023-06-19T08:04:00;20.80;97.30
1075;DHT22;526;51.392;12.448;2023-06-19T08:06:26;20.90;97.30
1075;DHT22;526;51.392;12.448;2023-06-19T08:08:51;20.90;97.30
1075;DHT22;526;51.392;12.448;2023-06-19T08:11:17;20.90;97.30
1075;DHT22;526;51.392;12.448;2023-06-19T08:13:43;21.00;97.30
1075;DHT22;526;51.392;12.448;2023-06-19T08:16:08;21.00;97.30
1075;DHT22;526;51.392;12.448;2023-06-19T08:18:35;21.00;97.30
1075;DHT22;526;51.392;12.448;2023-06-19T08:21:01;21.00;97.30
1075;DHT22;526;51.392;12.448;2023-06-19T08:23:26;21.00;97.30
1075;DHT22;526;51.392;12.448;2023-06-19T08:25:52;21.10;97.30
1075;DHT22;526;51.392;12.448;2023-06-19T08:28:17;21.10;97.30
1075;DHT22;526;51.392;12.448;2023-06-19T08:30:45;21.10;97.30
1075;DHT22;526;51.392;12.448;2023-06-19T08:33:11;21.20;97.30
1075;DHT22;526;51.392;12.448;2023-06-19T08:35:38;21.20;97.30
1075;DHT22;526;51.392;12.448;2023-06-19T08:38:03;21.30;97.30
1075;DHT22;526;51.392;12.448;2023-06-19T08:40:29;21.30;97.30
1075;DHT22;526;51.392;12.448;2023-06-19T08:42:54;21.40;97.30
1075;DHT22;526;51.392;12.448;2023-06-19T08:45:21;21.50;97.30
1075;DHT22;526;51.392;12.448;2023-06-19T08:47:48;21.70;97.30
1075;DHT22;526;51.392;12.448;2023-06-19T08:50:14;21.80;97.30
1075;DHT22;526;51.392;12.448;2023-06-19T08:52:39;21.90;97.30
1075;DHT22;526;51.392;12.448;2023-06-19T08:55:05;22.10;97.30
1075;DHT22;526;51.392;12.448;2023-06-19T08:57:35;22.20;97.30
1075;DHT22;526;51.392;12.448;2023-06-19T09:00:02;22.30;96.20
1075;DHT22;526;51.392;12.448;2023-06-19T09:02:45;22.50;96.50
1075;DHT22;526;51.392;12.448;2023-06-19T09:05:17;22.60;97.30
1075;DHT22;526;51.392;12.448;2023-06-19T09:07:44;22.70;96.30
1075;DHT22;526;51.392;12.448;2023-06-19T09:10:17;22.80;96.00
1075;DHT22;526;51.392;12.448;2023-06-19T09:12:44;22.80;95.80
1075;DHT22;526;51.392;12.448;2023-06-19T09:15:20;22.90;96.00
1075;DHT22;526;51.392;12.448;2023-06-19T09:17:46;22.90;95.90
1075;DHT22;526;51.392;12.448;2023-06-19T09:20:11;23.00;95.90
1075;DHT22;526;51.392;12.448;2023-06-19T09:22:37;23.00;95.90
1075;DHT22;526;51.392;12.448;2023-06-19T09:25:03;23.10;96.00
1075;DHT22;526;51.392;12.448;2023-06-19T09:27:33;23.10;96.20
1075;DHT22;526;51.392;12.448;2023-06-19T09:30:00;23.20;96.00
1075;DHT22;526;51.392;12.448;2023-06-19T09:32:27;23.30;95.90
1075;DHT22;526;51.392;12.448;2023-06-19T09:34:57;23.40;95.60
1075;DHT22;526;51.392;12.448;2023-06-19T09:37:27;23.40;95.40
1075;DHT22;526;51.392;12.448;2023-06-19T09:39:58;23.50;95.00
1075;DHT22;526;51.392;12.448;2023-06-19T09:42:32;23.60;95.00
1075;DHT22;526;51.392;12.448;2023-06-19T09:45:03;23.80;94.90
1075;DHT22;526;51.392;12.448;2023-06-19T09:47:36;24.00;94.20
1075;DHT22;526;51.392;12.448;2023-06-19T09:50:02;24.20;93.40
1075;DHT22;526;51.392;12.448;2023-06-19T09:52:29;24.40;92.70
1075;DHT22;526;51.392;12.448;2023-06-19T09:54:55;24.60;92.60
1075;DHT22;526;51.392;12.448;2023-06-19T09:57:23;24.80;92.10
1075;DHT22;526;51.392;12.448;2023-06-19T09:59:55;25.00;84.20
1075;DHT22;526;51.392;12.448;2023-06-19T10:02:25;25.20;82.80
1075;DHT22;526;51.392;12.448;2023-06-19T10:04:53;25.30;80.50
1075;DHT22;526;51.392;12.448;2023-06-19T10:07:23;25.50;83.10
1075;DHT22;526;51.392;12.448;2023-06-19T10:09:56;25.50;81.00
1075;DHT22;526;51.392;12.448;2023-06-19T10:12:22;25.60;79.70
1075;DHT22;526;51.392;12.448;2023-06-19T10:14:47;25.70;79.80
1075;DHT22;526;51.392;12.448;2023-06-19T10:17:19;25.80;80.10
1075;DHT22;526;51.392;12.448;2023-06-19T10:19:51;25.80;79.40
1075;DHT22;526;51.392;12.448;2023-06-19T10:22:20;25.90;80.00
1075;DHT22;526;51.392;12.448;2023-06-19T10:24:50;26.00;80.30
1075;DHT22;526;51.392;12.448;2023-06-19T10:27:21;26.10;81.20
1075;DHT22;526;51.392;12.448;2023-06-19T10:29:52;26.20;80.90
1075;DHT22;526;51.392;12.448;2023-06-19T10:32:19;26.30;82.10
1075;DHT22;526;51.392;12.448;2023-06-19T10:34:46;26.40;80.90
1075;DHT22;526;51.392;12.448;2023-06-19T10:37:12;26.60;80.20
1075;DHT22;526;51.392;12.448;2023-06-19T10:39:38;26.70;80.70
1075;DHT22;526;51.392;12.448;2023-06-19T10:42:08;26.70;81.20
1075;DHT22;526;51.392;12.448;2023-06-19T10:44:34;26.80;79.80
1075;DHT22;526;51.392;12.448;2023-06-19T10:47:01;26.90;81.40
1075;DHT22;526;51.392;12.448;2023-06-19T10:49:26;27.00;81.00
1075;DHT22;526;51.392;12.448;2023-06-19T10:51:52;27.20;80.00
1075;DHT22;526;51.392;12.448;2023-06-19T10:54:30;27.30;79.20
1075;DHT22;526;51.392;12.448;2023-06-19T10:56:56;27.40;78.00
1075;DHT22;526;51.392;12.448;2023-06-19T10:59:22;27.50;77.10
1075;DHT22;526;51.392;12.448;2023-06-19T11:01:48;27.60;79.00
1075;DHT22;526;51.392;12.448;2023-06-19T11:04:15;27.80;79.80
1075;DHT22;526;51.392;12.448;2023-06-19T11:06:43;27.90;78.50
1075;DHT22;526;51.392;12.448;2023-06-19T11:09:10;28.10;78.90
1075;DHT22;526;51.392;12.448;2023-06-19T11:11:46;28.20;76.50
1075;DHT22;526;51.392;12.448;2023-06-19T11:14:14;28.40;76.60
1075;DHT22;526;51.392;12.448;2023-06-19T11:16:41;28.40;75.30
1075;DHT22;526;51.392;12.448;2023-06-19T11:19:15;28.50;75.00
1075;DHT22;526;51.392;12.448;2023-06-19T11:21:45;28.40;74.60
1075;DHT22;526;51.392;12.448;2023-06-19T11:24:13;28.40;74.80
1075;DHT22;526;51.392;12.448;2023-06-19T11:26:44;28.40;76.50
1075;DHT22;526;51.392;12.448;2023-06-19T11:29:25;28.30;77.20
1075;DHT22;526;51.392;12.448;2023-06-19T11:32:10;28.30;77.60
1075;DHT22;526;51.392;12.448;2023-06-19T11:34:36;28.30;76.80
1075;DHT22;526;51.392;12.448;2023-06-19T11:37:22;28.30;77.80
1075;DHT22;526;51.392;12.448;2023-06-19T11:39:49;28.30;74.90
1075;DHT22;526;51.392;12.448;2023-06-19T11:42:15;28.30;74.50
1075;DHT22;526;51.392;12.448;2023-06-19T11:45:02;28.40;75.50
1075;DHT22;526;51.392;12.448;2023-06-19T11:47:30;28.50;76.40
1075;DHT22;526;51.392;12.448;2023-06-19T11:49:57;28.70;75.30
1075;DHT22;526;51.392;12.448;2023-06-19T11:52:22;28.80;75.30
1075;DHT22;526;51.392;12.448;2023-06-19T11:54:48;29.00;76.10
1075;DHT22;526;51.392;12.448;2023-06-19T11:57:13;29.10;75.10
1075;DHT22;526;51.392;12.448;2023-06-19T11:59:40;29.10;75.10
1075;DHT22;526;51.392;12.448;2023-06-19T12:02:06;29.20;74.90
1075;DHT22;526;51.392;12.448;2023-06-19T12:04:32;29.30;73.80
1075;DHT22;526;51.392;12.448;2023-06-19T12:06:58;29.50;74.60
1075;DHT22;526;51.392;12.448;2023-06-19T12:09:24;29.60;73.50
1075;DHT22;526;51.392;12.448;2023-06-19T12:11:49;29.60;74.00
1075;DHT22;526;51.392;12.448;2023-06-19T12:14:15;29.70;74.20
1075;DHT22;526;51.392;12.448;2023-06-19T12:16:41;29.80;73.70
1075;DHT22;526;51.392;12.448;2023-06-19T12:19:06;29.80;72.90
1075;DHT22;526;51.392;12.448;2023-06-19T12:21:32;29.90;73.50
1075;DHT22;526;51.392;12.448;2023-06-19T12:23:57;29.90;72.60
1075;DHT22;526;51.392;12.448;2023-06-19T12:26:22;30.00;74.00
1075;DHT22;526;51.392;12.448;2023-06-19T12:28:50;30.10;74.60
1075;DHT22;526;51.392;12.448;2023-06-19T12:31:17;30.20;75.00
1075;DHT22;526;51.392;12.448;2023-06-19T12:33:43;30.20;72.40
1075;DHT22;526;51.392;12.448;2023-06-19T12:36:11;30.30;72.50
1075;DHT22;526;51.392;12.448;2023-06-19T12:38:38;30.30;70.90
1075;DHT22;526;51.392;12.448;2023-06-19T12:41:04;30.30;73.10
1075;DHT22;526;51.392;12.448;2023-06-19T12:43:29;30.30;71.90
1075;DHT22;526;51.392;12.448;2023-06-19T12:45:57;30.30;71.80
1075;DHT22;526;51.392;12.448;2023-06-19T12:48:27;30.30;72.60
1075;DHT22;526;51.392;12.448;2023-06-19T12:50:53;30.40;71.20
1075;DHT22;526;51.392;12.448;2023-06-19T12:53:19;30.50;71.90
1075;DHT22;526;51.392;12.448;2023-06-19T12:55:44;30.50;71.60
1075;DHT22;526;51.392;12.448;2023-06-19T12:58:10;30.60;70.10
1075;DHT22;526;51.392;12.448;2023-06-19T13:00:36;30.70;70.30
1075;DHT22;526;51.392;12.448;2023-06-19T13:03:02;30.80;70.30
1075;DHT22;526;51.392;12.448;2023-06-19T13:05:28;30.90;70.50
1075;DHT22;526;51.392;12.448;2023-06-19T13:07:53;31.00;72.30
1075;DHT22;526;51.392;12.448;2023-06-19T13:10:19;31.10;69.00
1075;DHT22;526;51.392;12.448;2023-06-19T13:12:44;31.00;69.30
1075;DHT22;526;51.392;12.448;2023-06-19T13:15:10;30.90;68.10
1075;DHT22;526;51.392;12.448;2023-06-19T13:17:35;30.80;69.20
1075;DHT22;526;51.392;12.448;2023-06-19T13:20:01;30.80;71.30
1075;DHT22;526;51.392;12.448;2023-06-19T13:22:27;30.90;71.70
1075;DHT22;526;51.392;12.448;2023-06-19T13:27:20;31.20;69.50
1075;DHT22;526;51.392;12.448;2023-06-19T13:29:46;31.20;71.00
1075;DHT22;526;51.392;12.448;2023-06-19T13:32:11;31.30;71.20
1075;DHT22;526;51.392;12.448;2023-06-19T13:34:37;31.30;71.00
1075;DHT22;526;51.392;12.448;2023-06-19T13:37:03;31.30;68.80
1075;DHT22;526;51.392;12.448;2023-06-19T13:39:29;31.20;68.50
1075;DHT22;526;51.392;12.448;2023-06-19T13:41:55;31.10;69.00
1075;DHT22;526;51.392;12.448;2023-06-19T13:44:21;31.10;69.30
1075;DHT22;526;51.392;12.448;2023-06-19T13:46:46;31.10;69.30
1075;DHT22;526;51.392;12.448;2023-06-19T13:49:12;31.00;70.20
1075;DHT22;526;51.392;12.448;2023-06-19T13:51:39;30.90;71.20
1075;DHT22;526;51.392;12.448;2023-06-19T13:54:05;30.80;69.20
1075;DHT22;526;51.392;12.448;2023-06-19T13:56:31;30.70;69.00
1075;DHT22;526;51.392;12.448;2023-06-19T13:58:58;30.70;69.90
1075;DHT22;526;51.392;12.448;2023-06-19T14:01:23;30.70;70.80
1075;DHT22;526;51.392;12.448;2023-06-19T14:03:51;30.70;69.30
1075;DHT22;526;51.392;12.448;2023-06-19T14:06:16;30.80;70.50
1075;DHT22;526;51.392;12.448;2023-06-19T14:08:42;30.80;69.50
1075;DHT22;526;51.392;12.448;2023-06-19T14:11:07;30.80;69.30
1075;DHT22;526;51.392;12.448;2023-06-19T14:13:33;30.80;69.00
1075;DHT22;526;51.392;12.448;2023-06-19T14:15:59;30.70;69.20
1075;DHT22;526;51.392;12.448;2023-06-19T14:18:24;30.60;69.70
1075;DHT22;526;51.392;12.448;2023-06-19T14:20:49;30.60;71.30
1075;DHT22;526;51.392;12.448;2023-06-19T14:23:15;30.50;71.00
1075;DHT22;526;51.392;12.448;2023-06-19T14:25:41;30.40;71.40
1075;DHT22;526;51.392;12.448;2023-06-19T14:28:06;30.30;72.90
1075;DHT22;526;51.392;12.448;2023-06-19T14:30:32;30.30;73.30
1075;DHT22;526;51.392;12.448;2023-06-19T14:32:57;30.20;71.70
1075;DHT22;526;51.392;12.448;2023-06-19T14:35:23;30.20;72.90
1075;DHT22;526;51.392;12.448;2023-06-19T14:37:48;30.10;72.90
1075;DHT22;526;51.392;12.448;2023-06-19T14:40:14;30.00;72.10
1075;DHT22;526;51.392;12.448;2023-06-19T14:42:39;30.10;72.40
1075;DHT22;526;51.392;12.448;2023-06-19T14:45:06;30.20;72.50
1075;DHT22;526;51.392;12.448;2023-06-19T14:47:31;30.40;72.90
1075;DHT22;526;51.392;12.448;2023-06-19T14:49:57;30.60;72.60
1075;DHT22;526;51.392;12.448;2023-06-19T14:52:22;30.90;71.60
1075;DHT22;526;51.392;12.448;2023-06-19T14:54:48;31.10;73.20
1075;DHT22;526;51.392;12.448;2023-06-19T14:57:13;31.30;72.60
1075;DHT22;526;51.392;12.448;2023-06-19T14:59:39;31.50;71.40
1075;DHT22;526;51.392;12.448;2023-06-19T15:02:05;31.60;70.30
1075;DHT22;526;51.392;12.448;2023-06-19T15:04:32;31.60;70.70
1075;DHT22;526;51.392;12.448;2023-06-19T15:06:58;31.70;70.20
1075;DHT22;526;51.392;12.448;2023-06-19T15:09:24;31.60;69.40
1075;DHT22;526;51.392;12.448;2023-06-19T15:11:49;31.70;70.00
1075;DHT22;526;51.392;12.448;2023-06-19T15:14:15;31.70;70.00
1075;DHT22;526;51.392;12.448;2023-06-19T15:16:42;31.80;69.60
1075;DHT22;526;51.392;12.448;2023-06-19T15:19:08;31.90;69.80
1075;DHT22;526;51.392;12.448;2023-06-19T15:21:33;32.00;70.50
1075;DHT22;526;51.392;12.448;2023-06-19T15:23:59;32.20;69.60
1075;DHT22;526;51.392;12.448;2023-06-19T15:26:24;32.30;68.90
1075;DHT22;526;51.392;12.448;2023-06-19T15:28:50;32.40;70.20
1075;DHT22;526;51.392;12.448;2023-06-19T15:31:20;32.60;70.10
1075;DHT22;526;51.392;12.448;2023-06-19T15:33:46;32.70;70.40
1075;DHT22;526;51.392;12.448;2023-06-19T15:36:12;32.70;69.60
1075;DHT22;526;51.392;12.448;2023-06-19T15:38:37;32.80;69.10
1075;DHT22;526;51.392;12.448;2023-06-19T15:41:03;32.80;68.90
1075;DHT22;526;51.392;12.448;2023-06-19T15:43:28;32.80;69.70
1075;DHT22;526;51.392;12.448;2023-06-19T15:45:56;32.70;69.90
1075;DHT22;526;51.392;12.448;2023-06-19T15:48:22;32.60;69.50
1075;DHT22;526;51.392;12.448;2023-06-19T15:50:48;32.40;70.00
1075;DHT22;526;51.392;12.448;2023-06-19T15:53:13;32.40;69.80
1075;DHT22;526;51.392;12.448;2023-06-19T15:55:39;32.30;68.40
1075;DHT22;526;51.392;12.448;2023-06-19T15:58:09;32.10;69.40
1075;DHT22;526;51.392;12.448;2023-06-19T16:00:35;32.00;70.00
1075;DHT22;526;51.392;12.448;2023-06-19T16:03:00;31.90;70.00
1075;DHT22;526;51.392;12.448;2023-06-19T16:05:26;31.80;69.70